Pires Coelho — CUPM6 — position and weather

sailwx.info

Track history (hours):
 
Tides and Currents Weather Stations Pressure Air Temp Water Temp Dewpoint Dewpoint Depression Visibility Wind Speed Wind Dir Waves Ship Positions

Pires Coelho

Last reported at 2014-Aug-30 05:33 UTC. Time now 2014-Aug-30 16:32 UTC.
Position N 36°46' W 007°50'.

Length 27 m.

Type: Ship. MMSI: 263236000.

Date/timePositionNaut miles runAvg speedWind from/ knotsBaromVisibWave heightAir tempDewpointWater temp
2014-Aug-30 05:33N 36°46' W 007°50'4 2.7
2014-Aug-30 04:08N 36°45' W 007°45'3 2.9
2014-Aug-30 03:03N 36°42' W 007°43'3 1.1
2014-Aug-30 00:15N 36°44' W 007°45'2 2.8
2014-Aug-29 23:33N 36°45' W 007°48'16 0.6
2014-Aug-28 22:04N 36°59' W 007°38'16 0.5
2014-Aug-27 12:18N 36°52' W 007°57'2 3.0
2014-Aug-27 11:31N 36°51' W 007°59'5 2.4
2014-Aug-27 09:32N 36°52' W 008°05'3 2.3
2014-Aug-27 08:22N 36°51' W 008°03'2 3.1
2014-Aug-27 07:33N 36°51' W 007°60'3 3.0
2014-Aug-27 06:33N 36°52' W 007°56'7 1.3
2014-Aug-27 01:13N 36°47' W 007°49'16 1.8
2014-Aug-26 16:33N 36°49' W 008°09'3 2.9
2014-Aug-26 15:31N 36°49' W 008°12'3 2.9
2014-Aug-26 14:32N 36°49' W 008°16'3 2.1
2014-Aug-26 13:11N 36°50' W 008°20'2 2.9
2014-Aug-26 12:23N 36°50' W 008°22'3 2.8
2014-Aug-26 11:28N 36°50' W 008°26'3 3.0
2014-Aug-26 10:33N 36°50' W 008°29'1 0.6
2014-Aug-26 09:33N 36°50' W 008°30'3 3.0
2014-Aug-26 08:34N 36°50' W 008°26'3 3.0
2014-Aug-26 07:33N 36°50' W 008°22'3 3.0
2014-Aug-26 06:33N 36°49' W 008°19'4 2.9
2014-Aug-26 05:06N 36°50' W 008°13'1 1.2
2014-Aug-26 04:33N 36°50' W 008°14'4 3.0
2014-Aug-26 03:20N 36°51' W 008°19'2 2.9
2014-Aug-26 02:33N 36°51' W 008°21'3 2.9
2014-Aug-26 01:33N 36°53' W 008°25'3 2.9
2014-Aug-26 00:33N 36°54' W 008°28'0 0.4
2014-Aug-25 23:33N 36°54' W 008°28'3 2.9
2014-Aug-25 22:34N 36°53' W 008°24'3 2.9
2014-Aug-25 21:33N 36°51' W 008°21'3 2.9
2014-Aug-25 20:33N 36°51' W 008°18'1 1.4
2014-Aug-25 19:33N 36°49' W 008°18'3 3.0
2014-Aug-25 18:32N 36°50' W 008°22'3 3.0
2014-Aug-25 17:32N 36°50' W 008°26'2 1.9
2014-Aug-25 16:33N 36°50' W 008°28'3 2.8
2014-Aug-25 15:34N 36°50' W 008°25'3 2.9
2014-Aug-25 14:33N 36°50' W 008°21'5 2.3
2014-Aug-25 12:13N 36°49' W 008°14'2 3.0
2014-Aug-25 11:31N 36°49' W 008°12'3 2.9
2014-Aug-25 10:33N 36°49' W 008°08'3 3.1
2014-Aug-25 09:33N 36°50' W 008°05'2 1.6
2014-Aug-25 08:33N 36°52' W 008°05'3 2.7
2014-Aug-25 07:33N 36°51' W 008°02'3 3.1
2014-Aug-25 06:29N 36°52' W 007°58'3 2.9
2014-Aug-25 05:32N 36°52' W 007°54'5 5.2
2014-Aug-25 04:31N 36°51' W 008°01'7 7.2
2014-Aug-25 03:30N 36°50' W 008°10'2 2.4
2014-Aug-25 02:33N 36°51' W 008°07'3 2.8
2014-Aug-25 01:33N 36°53' W 008°05'3 3.0
2014-Aug-25 00:34N 36°53' W 008°01'6 6.3
2014-Aug-24 23:32N 36°56' W 007°54'6 0.8
2014-Aug-24 16:07N 36°51' W 007°59'2 2.9
2014-Aug-24 15:29N 36°51' W 008°01'3 1.7
2014-Aug-24 13:33N 36°52' W 008°05'3 2.6
2014-Aug-24 12:34N 36°51' W 008°02'3 3.0
2014-Aug-24 11:33N 36°52' W 007°58'2 1.9
2014-Aug-24 10:32N 36°52' W 007°56'3 2.3
2014-Aug-24 09:23N 36°51' W 007°59'24 2.0
2014-Aug-23 21:14N 36°40' W 008°27'7 9.9
2014-Aug-23 20:33N 36°46' W 008°22'4 4.3
2014-Aug-23 19:33N 36°49' W 008°18'12 0.7
2014-Aug-23 03:32N 36°57' W 008°08'9 9.2
2014-Aug-23 02:33N 37°01' W 008°18'9 9.2
2014-Aug-23 01:33N 37°05' W 008°28'4 4.1
2014-Aug-23 00:33N 37°08' W 008°32'0 0.0
2014-Aug-22 23:31N 37°08' W 008°32'0 0.0
2014-Aug-22 22:33N 37°08' W 008°32'0 0.0
2014-Aug-22 21:31N 37°08' W 008°32'0 0.0
2014-Aug-22 20:26N 37°08' W 008°32'0 0.0
2014-Aug-22 19:30N 37°08' W 008°32'0 0.0
2014-Aug-22 18:30N 37°08' W 008°32'0 0.0
2014-Aug-22 17:32N 37°08' W 008°32'0 0.0
2014-Aug-22 16:24N 37°08' W 008°32'  
Track history (hours):
 
Tides and Currents Weather Stations Pressure Air Temp Water Temp Dewpoint Dewpoint Depression Visibility Wind Speed Wind Dir Waves Ship Positions

Pires Coelho

Last reported at 2014-Aug-30 05:33 UTC. Time now 2014-Aug-30 16:32 UTC.
Position N 36°46' W 007°50'.

Length 27 m.

Type: Ship. MMSI: 263236000.

Date/timePositionNaut miles runAvg speedWind from/ knotsBaromVisibWave heightAir tempDewpointWater temp
2014-Aug-30 05:33N 36°46' W 007°50'4 2.7
2014-Aug-30 04:08N 36°45' W 007°45'3 2.9
2014-Aug-30 03:03N 36°42' W 007°43'3 1.1
2014-Aug-30 00:15N 36°44' W 007°45'2 2.8
2014-Aug-29 23:33N 36°45' W 007°48'16 0.6
2014-Aug-28 22:04N 36°59' W 007°38'16 0.5
2014-Aug-27 12:18N 36°52' W 007°57'2 3.0
2014-Aug-27 11:31N 36°51' W 007°59'5 2.4
2014-Aug-27 09:32N 36°52' W 008°05'3 2.3
2014-Aug-27 08:22N 36°51' W 008°03'2 3.1
2014-Aug-27 07:33N 36°51' W 007°60'3 3.0
2014-Aug-27 06:33N 36°52' W 007°56'7 1.3
2014-Aug-27 01:13N 36°47' W 007°49'16 1.8
2014-Aug-26 16:33N 36°49' W 008°09'3 2.9
2014-Aug-26 15:31N 36°49' W 008°12'3 2.9
2014-Aug-26 14:32N 36°49' W 008°16'3 2.1
2014-Aug-26 13:11N 36°50' W 008°20'2 2.9
2014-Aug-26 12:23N 36°50' W 008°22'3 2.8
2014-Aug-26 11:28N 36°50' W 008°26'3 3.0
2014-Aug-26 10:33N 36°50' W 008°29'1 0.6
2014-Aug-26 09:33N 36°50' W 008°30'3 3.0
2014-Aug-26 08:34N 36°50' W 008°26'3 3.0
2014-Aug-26 07:33N 36°50' W 008°22'3 3.0
2014-Aug-26 06:33N 36°49' W 008°19'4 2.9
2014-Aug-26 05:06N 36°50' W 008°13'1 1.2
2014-Aug-26 04:33N 36°50' W 008°14'4 3.0
2014-Aug-26 03:20N 36°51' W 008°19'2 2.9
2014-Aug-26 02:33N 36°51' W 008°21'3 2.9
2014-Aug-26 01:33N 36°53' W 008°25'3 2.9
2014-Aug-26 00:33N 36°54' W 008°28'0 0.4
2014-Aug-25 23:33N 36°54' W 008°28'3 2.9
2014-Aug-25 22:34N 36°53' W 008°24'3 2.9
2014-Aug-25 21:33N 36°51' W 008°21'3 2.9
2014-Aug-25 20:33N 36°51' W 008°18'1 1.4
2014-Aug-25 19:33N 36°49' W 008°18'3 3.0
2014-Aug-25 18:32N 36°50' W 008°22'3 3.0
2014-Aug-25 17:32N 36°50' W 008°26'2 1.9
2014-Aug-25 16:33N 36°50' W 008°28'3 2.8
2014-Aug-25 15:34N 36°50' W 008°25'3 2.9
2014-Aug-25 14:33N 36°50' W 008°21'5 2.3
2014-Aug-25 12:13N 36°49' W 008°14'2 3.0
2014-Aug-25 11:31N 36°49' W 008°12'3 2.9
2014-Aug-25 10:33N 36°49' W 008°08'3 3.1
2014-Aug-25 09:33N 36°50' W 008°05'2 1.6
2014-Aug-25 08:33N 36°52' W 008°05'3 2.7
2014-Aug-25 07:33N 36°51' W 008°02'3 3.1
2014-Aug-25 06:29N 36°52' W 007°58'3 2.9
2014-Aug-25 05:32N 36°52' W 007°54'5 5.2
2014-Aug-25 04:31N 36°51' W 008°01'7 7.2
2014-Aug-25 03:30N 36°50' W 008°10'2 2.4
2014-Aug-25 02:33N 36°51' W 008°07'3 2.8
2014-Aug-25 01:33N 36°53' W 008°05'3 3.0
2014-Aug-25 00:34N 36°53' W 008°01'6 6.3
2014-Aug-24 23:32N 36°56' W 007°54'6 0.8
2014-Aug-24 16:07N 36°51' W 007°59'2 2.9
2014-Aug-24 15:29N 36°51' W 008°01'3 1.7
2014-Aug-24 13:33N 36°52' W 008°05'3 2.6
2014-Aug-24 12:34N 36°51' W 008°02'3 3.0
2014-Aug-24 11:33N 36°52' W 007°58'2 1.9
2014-Aug-24 10:32N 36°52' W 007°56'3 2.3
2014-Aug-24 09:23N 36°51' W 007°59'24 2.0
2014-Aug-23 21:14N 36°40' W 008°27'7 9.9
2014-Aug-23 20:33N 36°46' W 008°22'4 4.3
2014-Aug-23 19:33N 36°49' W 008°18'12 0.7
2014-Aug-23 03:32N 36°57' W 008°08'9 9.2
2014-Aug-23 02:33N 37°01' W 008°18'9 9.2
2014-Aug-23 01:33N 37°05' W 008°28'4 4.1
2014-Aug-23 00:33N 37°08' W 008°32'0 0.0
2014-Aug-22 23:31N 37°08' W 008°32'0 0.0
2014-Aug-22 22:33N 37°08' W 008°32'0 0.0
2014-Aug-22 21:31N 37°08' W 008°32'0 0.0
2014-Aug-22 20:26N 37°08' W 008°32'0 0.0
2014-Aug-22 19:30N 37°08' W 008°32'0 0.0
2014-Aug-22 18:30N 37°08' W 008°32'0 0.0
2014-Aug-22 17:32N 37°08' W 008°32'0 0.0
2014-Aug-22 16:24N 37°08' W 008°32'  

Dump ship's entire track history